Time;durP1;ratioP1;P1;durP2;ratioP2;P2;SDS_P1;SDS_P2;PMS_P1;PMS_P2;Temp;Humidity;BMP_temperature;BMP_pressure;BME280_temperature;BME280_humidity;BME280_pressure;Samples;Min_cycle;Max_cycle;Signal;HPM_P1;HPM_P2
2023/05/28 00:00:27;;;;;;;9.47;8.60;;;12.50;99.90;;;;;;5030712;28;20525;-65
2023/05/28 00:02:52;;;;;;;8.50;7.73;;;12.40;99.90;;;;;;5031020;28;20180;-65
2023/05/28 00:05:18;;;;;;;8.73;7.97;;;12.40;99.90;;;;;;5030487;28;20179;-65
2023/05/28 00:07:44;;;;;;;10.10;7.70;;;12.40;99.90;;;;;;5030993;28;20680;-65
2023/05/28 00:10:10;;;;;;;10.53;8.67;;;12.30;99.90;;;;;;5030087;28;20689;-65
2023/05/28 00:12:36;;;;;;;8.70;7.80;;;12.30;99.90;;;;;;5030714;28;20195;-65
2023/05/28 00:15:02;;;;;;;8.70;7.07;;;12.20;99.90;;;;;;5030728;28;20211;-65
2023/05/28 00:17:28;;;;;;;8.57;7.87;;;12.20;99.90;;;;;;5030645;28;20696;-65
2023/05/28 00:19:53;;;;;;;9.00;7.47;;;12.20;99.90;;;;;;5030330;28;20195;-65
2023/05/28 00:22:19;;;;;;;10.57;7.83;;;12.10;99.90;;;;;;5030758;28;20186;-65
2023/05/28 00:24:45;;;;;;;8.90;7.63;;;12.10;99.90;;;;;;5030766;28;20211;-65
2023/05/28 00:27:10;;;;;;;10.57;9.20;;;12.10;99.90;;;;;;5033211;28;20183;-65
2023/05/28 00:29:36;;;;;;;10.20;9.00;;;12.10;99.90;;;;;;5034009;28;20199;-65
2023/05/28 00:32:02;;;;;;;10.87;7.43;;;12.00;99.90;;;;;;5034135;28;20225;-66
2023/05/28 00:34:28;;;;;;;10.83;8.13;;;12.00;99.90;;;;;;5034231;28;20246;-65
2023/05/28 00:36:53;;;;;;;7.87;7.17;;;12.00;99.90;;;;;;5034012;28;20234;-65
2023/05/28 00:39:19;;;;;;;8.33;7.27;;;11.90;99.90;;;;;;5034107;28;20225;-65
2023/05/28 00:41:45;;;;;;;8.43;7.27;;;11.90;99.90;;;;;;5033982;28;20172;-65
2023/05/28 00:44:12;;;;;;;10.03;8.40;;;11.80;99.90;;;;;;5033640;28;20265;-65
2023/05/28 00:46:40;;;;;;;7.93;7.20;;;11.80;99.90;;;;;;5034085;28;20686;-65
2023/05/28 00:49:06;;;;;;;9.40;8.20;;;11.90;99.90;;;;;;5033577;28;20172;-67
2023/05/28 00:51:33;;;;;;;8.63;7.57;;;11.80;99.90;;;;;;5034075;28;20266;-65
2023/05/28 00:53:59;;;;;;;9.87;7.27;;;11.80;99.90;;;;;;5033465;28;20330;-65
2023/05/28 00:56:26;;;;;;;8.50;7.70;;;11.80;99.90;;;;;;5033803;28;20167;-65
2023/05/28 00:58:52;;;;;;;9.63;8.23;;;11.80;99.90;;;;;;5033655;28;20178;-65
2023/05/28 01:01:18;;;;;;;12.47;8.70;;;11.70;99.90;;;;;;5033622;28;20271;-65
2023/05/28 01:03:43;;;;;;;8.63;7.83;;;11.70;99.90;;;;;;5033577;28;20183;-65
2023/05/28 01:06:12;;;;;;;9.43;7.97;;;11.70;99.90;;;;;;5033517;28;20180;-65
2023/05/28 01:08:39;;;;;;;11.33;7.40;;;11.60;99.90;;;;;;5033471;28;20274;-65
2023/05/28 01:11:08;;;;;;;9.20;8.23;;;11.60;99.90;;;;;;5033205;28;20203;-67
2023/05/28 01:13:35;;;;;;;10.77;8.20;;;11.50;99.90;;;;;;5031866;28;20203;-65
2023/05/28 01:16:00;;;;;;;8.23;7.50;;;11.50;99.90;;;;;;5033402;28;20175;-65
2023/05/28 01:18:27;;;;;;;8.63;7.30;;;11.40;99.90;;;;;;5033810;28;20230;-65
2023/05/28 01:20:53;;;;;;;8.57;7.53;;;11.40;99.90;;;;;;5022466;28;20218;-65
2023/05/28 01:23:20;;;;;;;8.53;7.60;;;11.40;99.90;;;;;;5033467;28;20175;-65
2023/05/28 01:25:53;;;;;;;9.73;7.57;;;11.40;99.90;;;;;;5031729;28;20241;-65
2023/05/28 01:28:20;;;;;;;8.57;7.60;;;11.40;99.90;;;;;;5033377;28;20174;-65
2023/05/28 01:30:46;;;;;;;9.27;7.70;;;11.30;99.90;;;;;;5032970;28;20218;-65
2023/05/28 01:33:13;;;;;;;8.53;7.43;;;11.30;99.90;;;;;;5033071;28;20645;-65
2023/05/28 01:35:40;;;;;;;9.27;8.27;;;11.30;99.90;;;;;;5032980;28;20540;-65
2023/05/28 01:38:08;;;;;;;8.17;7.43;;;11.20;99.90;;;;;;5033135;28;20575;-65
2023/05/28 01:40:36;;;;;;;9.27;8.27;;;11.20;99.90;;;;;;5032732;28;20286;-67
2023/05/28 01:43:03;;;;;;;10.73;7.90;;;11.20;99.90;;;;;;5032561;28;20186;-67
2023/05/28 01:45:30;;;;;;;8.97;8.07;;;11.20;99.90;;;;;;5032900;28;20536;-65
2023/05/28 01:47:56;;;;;;;10.90;7.50;;;11.20;99.90;;;;;;5032432;28;20190;-65
2023/05/28 01:50:22;;;;;;;11.20;8.73;;;11.20;99.90;;;;;;5032534;28;20673;-65
2023/05/28 01:52:48;;;;;;;9.43;8.53;;;11.10;99.90;;;;;;5032485;28;20180;-65
2023/05/28 01:55:14;;;;;;;15.13;8.20;;;11.00;99.90;;;;;;5032675;28;20614;-65
2023/05/28 01:57:40;;;;;;;9.70;8.63;;;11.00;99.90;;;;;;5032529;28;20263;-65
2023/05/28 02:00:07;;;;;;;9.20;8.30;;;11.00;99.90;;;;;;5031952;28;20204;-65
2023/05/28 02:02:34;;;;;;;10.30;7.60;;;11.00;99.90;;;;;;5032383;28;20183;-65
2023/05/28 02:04:59;;;;;;;8.60;7.90;;;10.90;99.90;;;;;;5032468;28;20609;-65
2023/05/28 02:07:25;;;;;;;8.67;7.83;;;10.90;99.90;;;;;;5032222;28;20282;-65
2023/05/28 02:09:51;;;;;;;8.77;7.97;;;10.90;99.90;;;;;;5031896;28;20243;-65
2023/05/28 02:12:16;;;;;;;9.77;7.40;;;10.90;99.90;;;;;;5032629;28;20245;-65
2023/05/28 02:14:43;;;;;;;9.13;8.33;;;10.80;99.90;;;;;;5032162;28;20206;-65
2023/05/28 02:17:12;;;;;;;8.23;7.30;;;10.80;99.90;;;;;;5031919;28;20652;-65
2023/05/28 02:19:37;;;;;;;10.73;8.30;;;10.80;99.90;;;;;;5032705;28;20195;-68
2023/05/28 02:22:11;;;;;;;12.13;7.97;;;10.80;99.90;;;;;;5032427;28;20652;-71
2023/05/28 02:24:38;;;;;;;9.70;8.17;;;10.80;99.90;;;;;;5033384;28;20218;-72
2023/05/28 02:27:04;;;;;;;11.23;8.07;;;10.70;99.90;;;;;;5031607;28;20221;-71
2023/05/28 02:29:30;;;;;;;8.37;7.60;;;10.70;99.90;;;;;;5013012;28;20203;-69
2023/05/28 02:31:56;;;;;;;12.63;7.40;;;10.70;99.90;;;;;;5030470;28;20187;-71
2023/05/28 02:34:21;;;;;;;9.00;8.10;;;10.60;99.90;;;;;;5031713;28;20217;-68
2023/05/28 02:36:47;;;;;;;10.10;7.87;;;10.60;99.90;;;;;;5032610;28;20207;-71
2023/05/28 02:39:13;;;;;;;8.47;7.57;;;10.60;99.90;;;;;;5032616;28;20203;-69
2023/05/28 02:41:38;;;;;;;8.70;7.80;;;10.60;99.90;;;;;;5031335;28;20174;-71
2023/05/28 02:44:04;;;;;;;10.00;8.13;;;10.60;99.90;;;;;;5032477;28;20183;-69
2023/05/28 02:46:30;;;;;;;10.57;7.87;;;10.60;99.90;;;;;;5032722;28;20297;-71
2023/05/28 02:48:55;;;;;;;10.10;8.47;;;10.50;99.90;;;;;;5031876;28;20729;-68
2023/05/28 02:51:21;;;;;;;10.30;8.10;;;10.50;99.90;;;;;;5030307;28;20195;-70
2023/05/28 02:53:47;;;;;;;10.13;9.23;;;10.50;99.90;;;;;;5031287;28;20238;-70
2023/05/28 02:56:12;;;;;;;9.00;8.10;;;10.50;99.90;;;;;;5032406;28;20274;-68
2023/05/28 02:58:39;;;;;;;9.67;8.73;;;10.50;99.90;;;;;;5032604;28;20175;-72
2023/05/28 03:01:06;;;;;;;10.90;9.07;;;10.50;99.90;;;;;;5030743;28;20191;-73
2023/05/28 03:03:32;;;;;;;9.60;8.60;;;10.40;99.90;;;;;;5032203;28;20634;-72
2023/05/28 03:05:57;;;;;;;9.77;8.77;;;10.40;99.90;;;;;;5032080;28;20183;-71
2023/05/28 03:08:23;;;;;;;12.20;8.30;;;10.40;99.90;;;;;;5030770;28;20183;-71
2023/05/28 03:10:48;;;;;;;10.83;8.77;;;10.40;99.90;;;;;;5032068;28;20605;-73
2023/05/28 03:13:14;;;;;;;10.70;9.60;;;10.30;99.90;;;;;;5032298;28;20184;-72
2023/05/28 03:15:40;;;;;;;8.77;7.97;;;10.20;99.90;;;;;;5032703;28;20179;-70
2023/05/28 03:18:05;;;;;;;11.47;8.67;;;10.20;99.90;;;;;;5032320;28;20266;-70
2023/05/28 03:20:31;;;;;;;9.20;8.40;;;10.20;99.90;;;;;;5032486;28;20249;-68
2023/05/28 03:22:58;;;;;;;9.90;9.00;;;10.10;99.90;;;;;;5032781;28;20181;-69
2023/05/28 03:25:25;;;;;;;8.93;8.13;;;10.10;99.90;;;;;;5032878;28;20180;-68
2023/05/28 03:27:51;;;;;;;9.77;8.77;;;10.20;99.90;;;;;;5032742;28;20179;-71
2023/05/28 03:30:17;;;;;;;9.53;8.30;;;10.20;99.90;;;;;;5031231;28;20257;-71
2023/05/28 03:32:43;;;;;;;9.53;8.63;;;10.10;99.90;;;;;;5032504;28;20187;-72
2023/05/28 03:35:08;;;;;;;10.63;9.23;;;10.10;99.90;;;;;;5032246;28;20207;-71
2023/05/28 03:37:34;;;;;;;10.17;9.00;;;10.10;99.90;;;;;;5032788;28;20198;-73
2023/05/28 03:40:00;;;;;;;12.87;8.20;;;10.10;99.90;;;;;;5031283;28;20234;-72
2023/05/28 03:42:25;;;;;;;12.20;9.80;;;10.10;99.90;;;;;;5032908;28;20176;-72
2023/05/28 03:44:51;;;;;;;11.63;9.60;;;10.10;99.90;;;;;;5032805;28;20171;-71
2023/05/28 03:47:17;;;;;;;12.27;9.73;;;10.10;99.90;;;;;;5033297;28;20206;-72
2023/05/28 03:49:42;;;;;;;11.97;9.23;;;10.10;99.90;;;;;;5032341;28;20200;-74
2023/05/28 03:52:09;;;;;;;11.70;10.10;;;10.10;99.90;;;;;;5032325;28;20271;-73
2023/05/28 03:54:35;;;;;;;13.83;10.10;;;10.10;99.90;;;;;;5031087;28;20207;-68
2023/05/28 03:57:01;;;;;;;11.00;9.87;;;10.20;99.90;;;;;;5032341;28;20218;-71
2023/05/28 03:59:26;;;;;;;13.00;10.00;;;10.20;99.90;;;;;;5032685;28;20676;-69
2023/05/28 04:01:52;;;;;;;11.43;9.87;;;10.20;99.90;;;;;;5035126;28;20531;-70
2023/05/28 04:04:18;;;;;;;13.60;10.57;;;10.30;99.90;;;;;;5036207;28;20176;-69
2023/05/28 04:06:44;;;;;;;14.27;10.10;;;10.30;99.90;;;;;;5036405;28;20279;-70
2023/05/28 04:09:09;;;;;;;11.77;10.20;;;10.40;99.90;;;;;;5036022;28;20304;-69
2023/05/28 04:11:37;;;;;;;11.80;10.03;;;10.40;99.90;;;;;;5036383;28;20249;-72
2023/05/28 04:14:03;;;;;;;13.77;10.43;;;10.50;99.90;;;;;;5035776;28;20241;-69
2023/05/28 04:16:29;;;;;;;13.97;10.90;;;10.60;99.90;;;;;;5034321;28;20543;-72
2023/05/28 04:18:55;;;;;;;14.43;11.73;;;10.60;99.90;;;;;;5035742;28;20551;-72
2023/05/28 04:21:22;;;;;;;12.87;10.90;;;10.70;99.90;;;;;;5035266;28;20213;-72
2023/05/28 04:23:47;;;;;;;13.20;10.67;;;10.80;99.90;;;;;;5035693;28;20558;-72
2023/05/28 04:26:14;;;;;;;17.27;11.23;;;10.90;99.90;;;;;;5035014;28;20179;-74
2023/05/28 04:28:41;;;;;;;13.13;10.50;;;11.00;99.90;;;;;;5035665;28;20642;-71
2023/05/28 04:31:07;;;;;;;12.80;10.80;;;11.10;99.90;;;;;;5033482;28;20970;-66
2023/05/28 04:33:32;;;;;;;14.20;10.37;;;11.30;99.90;;;;;;5033058;28;20233;-66
2023/05/28 04:35:59;;;;;;;12.63;10.40;;;11.30;99.90;;;;;;5032523;28;20179;-66
2023/05/28 04:38:28;;;;;;;14.00;10.73;;;11.40;99.90;;;;;;5034184;28;20163;-66
2023/05/28 04:40:54;;;;;;;15.20;9.33;;;11.50;99.90;;;;;;5033417;28;20563;-67
2023/05/28 04:43:21;;;;;;;10.33;9.23;;;11.60;99.90;;;;;;5034467;28;20179;-66
2023/05/28 04:45:47;;;;;;;11.17;9.10;;;11.60;99.90;;;;;;5034061;28;20186;-66
2023/05/28 04:48:12;;;;;;;10.60;8.83;;;11.70;99.90;;;;;;5033800;28;20661;-66
2023/05/28 04:50:39;;;;;;;11.40;9.50;;;11.60;99.90;;;;;;5033612;28;20194;-66
2023/05/28 04:53:04;;;;;;;10.93;9.13;;;11.60;99.90;;;;;;5034098;28;20182;-66
2023/05/28 04:55:30;;;;;;;13.50;9.83;;;11.80;99.90;;;;;;5033933;28;20208;-66
2023/05/28 04:57:55;;;;;;;9.40;8.50;;;11.90;99.90;;;;;;5033633;28;20175;-66
2023/05/28 05:00:23;;;;;;;11.57;10.00;;;12.20;99.90;;;;;;5033049;28;20188;-66
2023/05/28 05:02:49;;;;;;;10.53;8.93;;;12.50;99.90;;;;;;5033738;28;20195;-66
2023/05/28 05:05:16;;;;;;;10.53;9.07;;;12.90;99.90;;;;;;5032557;28;20183;-67
2023/05/28 05:07:41;;;;;;;10.70;9.53;;;13.30;99.90;;;;;;5033833;28;20584;-66
2023/05/28 05:10:10;;;;;;;11.50;8.90;;;13.70;99.90;;;;;;5033104;28;20253;-66
2023/05/28 05:12:36;;;;;;;13.73;8.10;;;13.80;99.90;;;;;;5033358;28;20199;-66
2023/05/28 05:15:04;;;;;;;10.67;9.30;;;13.90;99.90;;;;;;5033477;28;20211;-66
2023/05/28 05:17:30;;;;;;;10.90;9.77;;;14.00;99.90;;;;;;5033227;28;20176;-66
2023/05/28 05:19:56;;;;;;;14.37;9.87;;;14.30;99.90;;;;;;5033140;28;20183;-66
2023/05/28 05:22:22;;;;;;;10.90;9.80;;;14.60;99.90;;;;;;5033162;28;20183;-66
2023/05/28 05:24:48;;;;;;;10.57;9.57;;;14.80;99.90;;;;;;5033534;28;20179;-66
2023/05/28 05:27:13;;;;;;;12.33;10.00;;;14.90;99.90;;;;;;5032853;28;20226;-66
2023/05/28 05:29:39;;;;;;;10.27;9.17;;;15.10;99.90;;;;;;5033118;28;20207;-66
2023/05/28 05:32:06;;;;;;;12.63;9.13;;;15.10;99.90;;;;;;5033374;28;20258;-66
2023/05/28 05:34:32;;;;;;;11.17;9.53;;;15.10;99.90;;;;;;5033047;28;20703;-66
2023/05/28 05:36:58;;;;;;;13.97;9.50;;;15.10;99.90;;;;;;5033461;28;20252;-66
2023/05/28 05:39:24;;;;;;;17.13;11.03;;;15.00;99.90;;;;;;5033065;28;20187;-66
2023/05/28 05:41:50;;;;;;;11.40;9.67;;;14.90;99.90;;;;;;5033510;28;20167;-66
2023/05/28 05:44:16;;;;;;;11.93;9.57;;;15.00;99.90;;;;;;5032805;28;20633;-67
2023/05/28 05:46:41;;;;;;;10.93;8.97;;;15.10;99.90;;;;;;5031413;28;20567;-66
2023/05/28 05:49:08;;;;;;;12.03;7.97;;;15.30;99.90;;;;;;5032397;28;20179;-66
2023/05/28 05:51:33;;;;;;;10.90;9.73;;;15.70;99.90;;;;;;5032266;28;20180;-66
2023/05/28 05:53:59;;;;;;;13.77;9.13;;;16.20;99.90;;;;;;5031359;28;20199;-67
2023/05/28 05:56:25;;;;;;;11.30;8.23;;;16.70;99.90;;;;;;5032397;28;20180;-67
2023/05/28 05:58:51;;;;;;;12.00;9.00;;;17.30;99.90;;;;;;5032424;28;20167;-66
2023/05/28 06:01:17;;;;;;;10.57;8.98;;;17.90;99.90;;;;;;5032065;28;20222;-66
2023/05/28 06:03:43;;;;;;;10.30;7.88;;;18.50;99.90;;;;;;5032688;28;20275;-67
2023/05/28 06:06:09;;;;;;;8.80;7.60;;;19.00;99.90;;;;;;5032323;28;20693;-67
2023/05/28 06:08:35;;;;;;;8.90;7.95;;;19.40;99.90;;;;;;5032303;28;20214;-67
2023/05/28 06:11:01;;;;;;;11.05;8.45;;;19.60;99.90;;;;;;5030734;28;20873;-67
2023/05/28 06:13:26;;;;;;;11.15;8.98;;;20.00;99.90;;;;;;5031979;28;20199;-67
2023/05/28 06:15:52;;;;;;;19.80;8.02;;;20.30;99.90;;;;;;5030521;28;20259;-67
2023/05/28 06:18:18;;;;;;;8.45;6.90;;;20.70;99.90;;;;;;5031675;28;20211;-67
2023/05/28 06:20:43;;;;;;;9.82;7.43;;;21.00;99.90;;;;;;5031693;28;20195;-67
2023/05/28 06:23:09;;;;;;;9.85;6.38;;;21.20;99.90;;;;;;5030373;28;20171;-67
2023/05/28 06:25:35;;;;;;;18.23;6.40;;;21.50;99.90;;;;;;5031821;28;20233;-67
2023/05/28 06:28:01;;;;;;;6.80;6.05;;;21.80;99.90;;;;;;5032141;28;20167;-67
2023/05/28 06:30:27;;;;;;;8.38;6.07;;;22.10;99.90;;;;;;5029714;28;20623;-67
2023/05/28 06:32:52;;;;;;;6.97;5.57;;;22.30;99.90;;;;;;5031975;28;20294;-67
2023/05/28 06:35:18;;;;;;;7.03;6.15;;;22.60;99.90;;;;;;5031601;28;20282;-67
2023/05/28 06:37:43;;;;;;;8.60;5.85;;;22.90;99.90;;;;;;5031956;28;20648;-67
2023/05/28 06:40:10;;;;;;;9.30;5.32;;;23.30;99.90;;;;;;5031040;28;20199;-67
2023/05/28 06:42:37;;;;;;;5.70;5.20;;;23.60;99.90;;;;;;5031861;28;20588;-65
2023/05/28 06:45:03;;;;;;;7.28;5.10;;;23.90;99.90;;;;;;5031457;28;20179;-65
2023/05/28 06:47:29;;;;;;;7.20;5.13;;;24.10;99.90;;;;;;5031620;28;20175;-65
2023/05/28 06:49:55;;;;;;;6.65;5.93;;;24.20;99.90;;;;;;5031216;28;20213;-65
2023/05/28 06:52:22;;;;;;;6.85;6.10;;;24.50;99.90;;;;;;5031889;28;20178;-65
2023/05/28 06:54:47;;;;;;;11.50;5.57;;;24.30;99.90;;;;;;5030684;28;20763;-65
2023/05/28 06:57:13;;;;;;;6.63;5.50;;;24.50;99.90;;;;;;5031536;28;20179;-65
2023/05/28 06:59:39;;;;;;;9.48;5.43;;;24.60;99.90;;;;;;5031691;28;20187;-64
2023/05/28 07:02:05;;;;;;;7.55;5.60;;;24.90;99.90;;;;;;5031244;28;20197;-67
2023/05/28 07:04:30;;;;;;;7.07;5.85;;;24.90;99.90;;;;;;5031340;28;20178;-68
2023/05/28 07:06:56;;;;;;;5.82;4.82;;;25.00;99.90;;;;;;5031536;28;20251;-67
2023/05/28 07:09:21;;;;;;;8.20;6.70;;;25.40;99.90;;;;;;5030601;28;20217;-68
2023/05/28 07:11:47;;;;;;;7.80;5.40;;;25.60;99.90;;;;;;5031547;28;20172;-67
2023/05/28 07:14:13;;;;;;;8.90;7.88;;;25.80;99.90;;;;;;5030793;28;20737;-67
2023/05/28 07:16:39;;;;;;;10.80;9.68;;;25.90;99.90;;;;;;5031424;28;20167;-65
2023/05/28 07:19:05;;;;;;;6.00;5.45;;;26.00;99.90;;;;;;5030948;28;20180;-65
2023/05/28 07:21:32;;;;;;;7.82;5.43;;;26.20;99.90;;;;;;5031193;28;20175;-65
2023/05/28 07:23:58;;;;;;;7.18;4.80;;;26.50;99.90;;;;;;5030931;28;20625;-65
2023/05/28 07:26:23;;;;;;;7.57;5.03;;;26.40;99.90;;;;;;5031017;28;20286;-65
2023/05/28 07:28:49;;;;;;;6.50;5.72;;;26.80;99.90;;;;;;5030872;28;20571;-65
2023/05/28 07:31:14;;;;;;;7.30;5.57;;;27.20;99.90;;;;;;5030722;28;20279;-65
2023/05/28 07:33:40;;;;;;;8.85;5.82;;;27.40;99.90;;;;;;5029617;28;20570;-65
2023/05/28 07:36:06;;;;;;;8.45;5.13;;;27.70;99.90;;;;;;5033592;28;20176;-65
2023/05/28 07:38:32;;;;;;;8.88;5.30;;;28.00;99.90;;;;;;5028703;28;20199;-65
2023/05/28 07:40:57;;;;;;;6.43;4.85;;;28.00;99.90;;;;;;5034182;28;20242;-65
2023/05/28 07:43:23;;;;;;;7.57;6.72;;;28.20;99.90;;;;;;5034958;28;20183;-65
2023/05/28 07:45:48;;;;;;;7.68;6.40;;;28.10;99.90;;;;;;5034496;28;20189;-65
2023/05/28 07:48:14;;;;;;;6.13;5.55;;;28.00;99.90;;;;;;5035020;28;20335;-65
2023/05/28 07:50:40;;;;;;;7.65;5.50;;;28.30;99.90;;;;;;5034303;28;20594;-65
2023/05/28 07:53:06;;;;;;;5.57;4.82;;;28.30;99.90;;;;;;5034775;28;20579;-66
2023/05/28 07:55:32;;;;;;;8.93;5.07;;;28.40;99.90;;;;;;5033719;28;20210;-65
2023/05/28 07:57:58;;;;;;;5.38;4.88;;;28.60;99.90;;;;;;5034402;28;20172;-66
2023/05/28 08:00:25;;;;;;;7.25;4.88;;;28.50;99.90;;;;;;5034187;28;20191;-66
2023/05/28 08:02:51;;;;;;;8.35;5.45;;;28.80;99.90;;;;;;5034431;28;20168;-66
2023/05/28 08:05:18;;;;;;;5.57;5.18;;;28.90;99.90;;;;;;5034759;28;20707;-66
2023/05/28 08:07:44;;;;;;;7.00;4.93;;;28.70;99.90;;;;;;5034463;28;20179;-66
2023/05/28 08:10:10;;;;;;;7.45;6.00;;;28.60;99.90;;;;;;5033912;28;20330;-66
2023/05/28 08:12:35;;;;;;;8.20;6.43;;;28.60;99.90;;;;;;5034657;28;20222;-66
2023/05/28 08:15:01;;;;;;;6.82;6.22;;;28.80;99.90;;;;;;5034275;28;20291;-66
2023/05/28 08:17:30;;;;;;;6.53;5.10;;;29.00;99.90;;;;;;5034354;28;20271;-66
2023/05/28 08:19:55;;;;;;;6.90;6.30;;;29.20;99.90;;;;;;5033968;28;20202;-66
2023/05/28 08:22:21;;;;;;;7.80;5.50;;;29.00;99.90;;;;;;5033829;28;20176;-66
2023/05/28 08:24:46;;;;;;;6.32;5.10;;;29.40;99.90;;;;;;5034404;28;20208;-66
2023/05/28 08:27:12;;;;;;;5.50;4.40;;;29.60;99.90;;;;;;5033854;28;20190;-66
2023/05/28 08:29:38;;;;;;;5.47;4.47;;;29.90;98.50;;;;;;5033817;28;20747;-66
2023/05/28 08:32:04;;;;;;;7.05;4.68;;;29.80;97.30;;;;;;5033823;28;20180;-65
2023/05/28 08:34:30;;;;;;;5.72;4.57;;;29.40;97.40;;;;;;5033924;28;20276;-66
2023/05/28 08:36:56;;;;;;;6.07;4.53;;;29.20;98.20;;;;;;5033301;28;20180;-65
2023/05/28 08:39:24;;;;;;;11.68;4.50;;;29.20;96.30;;;;;;5033727;28;20187;-66
2023/05/28 08:41:49;;;;;;;4.90;4.40;;;29.40;97.50;;;;;;5033049;28;20335;-66
2023/05/28 08:44:15;;;;;;;4.72;4.28;;;29.00;96.20;;;;;;5033907;28;20281;-66
2023/05/28 08:46:41;;;;;;;5.88;4.60;;;29.00;95.40;;;;;;5032918;28;20636;-66
2023/05/28 08:49:10;;;;;;;5.25;4.75;;;29.00;96.60;;;;;;5032876;28;20171;-66
2023/05/28 08:51:37;;;;;;;5.22;4.72;;;29.30;98.10;;;;;;5032210;28;20167;-66
2023/05/28 08:54:03;;;;;;;6.18;5.50;;;29.50;98.50;;;;;;5019551;28;20562;-66
2023/05/28 08:56:28;;;;;;;8.52;4.25;;;29.80;95.90;;;;;;5029784;28;20230;-66
2023/05/28 08:58:54;;;;;;;7.10;4.68;;;30.10;97.20;;;;;;5033406;28;20180;-66
2023/05/28 09:01:20;;;;;;;5.40;4.60;;;29.70;94.60;;;;;;5019758;28;20188;-66
2023/05/28 09:03:46;;;;;;;6.32;4.63;;;29.40;98.10;;;;;;5027461;28;20262;-66
2023/05/28 09:06:15;;;;;;;4.95;4.32;;;29.30;94.40;;;;;;5033250;28;20214;-66
2023/05/28 09:08:45;;;;;;;6.93;4.85;;;29.20;95.90;;;;;;5033119;28;20192;-66
2023/05/28 09:11:12;;;;;;;6.45;4.63;;;29.10;94.10;;;;;;5032815;28;20223;-65
2023/05/28 09:13:46;;;;;;;5.25;4.45;;;29.20;93.70;;;;;;5033117;28;20214;-65
2023/05/28 09:16:22;;;;;;;5.20;4.65;;;29.50;94.90;;;;;;5033104;28;20171;-65
2023/05/28 09:19:01;;;;;;;5.90;5.28;;;29.80;96.70;;;;;;5033087;28;20179;-64
2023/05/28 09:21:26;;;;;;;7.70;6.35;;;30.30;92.60;;;;;;5033175;28;20167;-64
2023/05/28 09:23:52;;;;;;;7.90;5.28;;;30.20;92.20;;;;;;5032781;28;20705;-66
2023/05/28 09:26:20;;;;;;;8.75;5.18;;;30.10;94.00;;;;;;5032952;28;20546;-65
2023/05/28 09:28:48;;;;;;;9.30;6.00;;;30.30;93.80;;;;;;5032818;28;20593;-66
2023/05/28 09:31:14;;;;;;;6.05;4.45;;;29.90;90.40;;;;;;5032570;28;20669;-65
2023/05/28 09:33:46;;;;;;;4.60;4.20;;;30.10;90.40;;;;;;5032649;28;20376;-66
2023/05/28 09:36:16;;;;;;;5.55;4.88;;;29.80;87.90;;;;;;5032837;28;20179;-66
2023/05/28 09:38:42;;;;;;;7.22;5.57;;;29.90;90.50;;;;;;5032622;28;20175;-66
2023/05/28 09:41:33;;;;;;;10.13;5.35;;;29.70;87.80;;;;;;5032232;28;20715;-65
2023/05/28 09:44:01;;;;;;;6.70;5.13;;;29.80;88.10;;;;;;5032410;28;20213;-65
2023/05/28 09:46:31;;;;;;;5.43;4.57;;;29.70;89.90;;;;;;5032531;28;20782;-65
2023/05/28 09:48:58;;;;;;;6.97;4.53;;;29.70;87.20;;;;;;5032429;28;20172;-66
2023/05/28 09:51:26;;;;;;;4.95;4.57;;;29.80;89.30;;;;;;5027476;28;20261;-66
2023/05/28 09:53:57;;;;;;;6.18;4.65;;;29.90;87.20;;;;;;5032436;28;20195;-66
2023/05/28 09:56:27;;;;;;;7.55;3.92;;;30.30;92.30;;;;;;5032255;28;20321;-66
2023/05/28 09:58:56;;;;;;;5.40;4.28;;;30.30;85.30;;;;;;5032512;28;20522;-66
2023/05/28 10:01:24;;;;;;;5.78;3.78;;;30.70;91.60;;;;;;5031931;28;20290;-66
2023/05/28 10:03:57;;;;;;;5.63;3.38;;;31.00;90.50;;;;;;5032440;28;20717;-66
2023/05/28 10:06:25;;;;;;;5.15;4.32;;;31.10;91.20;;;;;;5032066;28;20521;-66
2023/05/28 10:08:51;;;;;;;6.88;4.22;;;31.20;90.70;;;;;;5032170;28;20657;-66
2023/05/28 10:11:22;;;;;;;4.28;3.78;;;31.60;89.80;;;;;;5031529;28;20245;-66
2023/05/28 10:13:48;;;;;;;6.03;4.40;;;31.60;91.40;;;;;;5032178;28;20278;-65
2023/05/28 10:16:14;;;;;;;4.55;3.95;;;31.40;83.90;;;;;;5031781;28;20737;-66
2023/05/28 10:18:42;;;;;;;6.50;4.22;;;31.30;85.30;;;;;;5031840;28;20579;-65
2023/05/28 10:21:09;;;;;;;7.07;3.97;;;30.90;85.20;;;;;;5031674;28;20198;-65
2023/05/28 10:23:35;;;;;;;4.30;3.90;;;30.70;90.30;;;;;;5030162;28;20334;-66
2023/05/28 10:26:02;;;;;;;6.00;4.50;;;31.00;86.90;;;;;;5031901;28;20233;-66
2023/05/28 10:28:30;;;;;;;4.32;3.65;;;31.00;87.20;;;;;;5031821;28;20164;-65
2023/05/28 10:31:04;;;;;;;8.32;4.32;;;31.10;88.20;;;;;;5031071;28;20310;-65
2023/05/28 10:33:30;;;;;;;4.25;3.85;;;31.70;90.20;;;;;;5031834;28;20175;-66
2023/05/28 10:36:00;;;;;;;5.68;4.32;;;32.20;86.80;;;;;;5031458;28;20175;-66
2023/05/28 10:38:29;;;;;;;5.13;4.15;;;32.40;90.70;;;;;;5031676;28;20167;-66
2023/05/28 10:41:02;;;;;;;5.60;4.03;;;31.80;80.80;;;;;;5031199;28;20622;-65
2023/05/28 10:43:40;;;;;;;7.00;4.10;;;31.60;82.10;;;;;;5031787;28;20164;-66
2023/05/28 10:46:15;;;;;;;6.95;4.22;;;31.60;86.10;;;;;;5031226;28;20182;-66
2023/05/28 10:49:01;;;;;;;5.10;4.20;;;31.20;85.90;;;;;;5031636;28;20179;-65
2023/05/28 10:51:56;;;;;;;7.65;4.53;;;30.70;82.20;;;;;;5031150;28;20178;-65
2023/05/28 10:54:29;;;;;;;6.35;4.40;;;30.50;86.80;;;;;;5010396;28;20216;-66
2023/05/28 10:57:08;;;;;;;4.13;3.67;;;30.40;85.30;;;;;;5026590;28;20253;-68
2023/05/28 10:59:38;;;;;;;8.05;4.60;;;30.10;83.90;;;;;;5031486;28;20187;-68
2023/05/28 11:02:06;;;;;;;4.93;4.35;;;30.10;82.30;;;;;;5031028;28;20179;-68
2023/05/28 11:04:35;;;;;;;4.82;4.43;;;30.00;82.30;;;;;;5029923;28;20584;-66
2023/05/28 11:07:02;;;;;;;5.85;4.13;;;29.80;84.30;;;;;;5031174;28;20203;-67
2023/05/28 11:09:27;;;;;;;7.88;5.25;;;29.70;82.10;;;;;;5030198;28;20207;-68
2023/05/28 11:12:01;;;;;;;6.15;4.40;;;29.70;86.60;;;;;;5031159;28;20178;-68
2023/05/28 11:14:38;;;;;;;4.53;4.15;;;29.70;86.30;;;;;;5029944;28;20210;-67
2023/05/28 11:17:09;;;;;;;7.18;4.18;;;30.00;81.90;;;;;;5031136;28;20229;-65
2023/05/28 11:19:42;;;;;;;5.80;4.38;;;30.10;82.70;;;;;;5030910;28;20201;-66
2023/05/28 11:22:08;;;;;;;4.90;4.22;;;30.30;78.70;;;;;;5031008;28;20164;-65
2023/05/28 11:24:49;;;;;;;4.88;4.25;;;30.50;83.60;;;;;;5030768;28;20186;-66
2023/05/28 11:27:15;;;;;;;5.70;3.95;;;30.60;81.40;;;;;;5030833;28;20182;-66
2023/05/28 11:29:41;;;;;;;5.45;4.60;;;30.80;85.50;;;;;;5016549;28;20207;-66
2023/05/28 11:32:06;;;;;;;9.05;5.03;;;30.60;81.20;;;;;;5031098;28;20191;-66
2023/05/28 11:34:32;;;;;;;5.55;4.07;;;30.40;80.60;;;;;;5029287;28;20241;-65
2023/05/28 11:36:59;;;;;;;5.25;4.35;;;30.60;85.40;;;;;;5030793;28;20699;-65
2023/05/28 11:39:25;;;;;;;5.15;4.20;;;30.50;85.50;;;;;;5030419;28;20199;-64
2023/05/28 11:41:50;;;;;;;5.25;4.00;;;30.30;78.80;;;;;;5030700;28;20302;-65
2023/05/28 11:44:22;;;;;;;7.40;4.68;;;30.10;78.50;;;;;;5030863;28;20176;-66
2023/05/28 11:46:55;;;;;;;7.28;4.55;;;29.90;86.20;;;;;;5029495;28;20183;-65
2023/05/28 11:49:22;;;;;;;6.55;4.40;;;29.70;78.30;;;;;;5009403;28;20561;-66
2023/05/28 11:51:50;;;;;;;4.88;4.32;;;29.80;80.30;;;;;;5011729;28;20179;-66
2023/05/28 11:54:15;;;;;;;7.13;5.15;;;29.80;80.10;;;;;;5010984;28;20215;-64
2023/05/28 11:56:41;;;;;;;4.47;3.90;;;29.90;80.00;;;;;;5011024;28;20164;-64
2023/05/28 11:59:07;;;;;;;5.20;4.70;;;30.00;76.10;;;;;;5028581;28;20294;-66
2023/05/28 12:01:35;;;;;;;5.00;4.30;;;30.20;85.80;;;;;;5028092;28;20175;-66
2023/05/28 12:04:08;;;;;;;4.22;3.83;;;30.70;86.30;;;;;;5029880;28;20306;-64
2023/05/28 12:06:35;;;;;;;4.63;3.72;;;31.20;83.10;;;;;;5030597;28;20607;-64
2023/05/28 12:09:07;;;;;;;6.85;4.45;;;31.10;83.90;;;;;;5028863;28;20196;-65
2023/05/28 12:11:33;;;;;;;4.57;4.18;;;31.20;85.50;;;;;;5030609;28;20573;-65
2023/05/28 12:14:11;;;;;;;5.50;4.57;;;31.20;77.90;;;;;;5030630;28;20561;-67
2023/05/28 12:16:49;;;;;;;7.10;4.93;;;31.20;72.00;;;;;;5029687;28;20175;-66
2023/05/28 12:19:15;;;;;;;4.93;4.43;;;31.00;78.40;;;;;;5030319;28;20175;-66
2023/05/28 12:21:41;;;;;;;7.60;4.80;;;31.20;81.20;;;;;;5030898;28;20645;-65
2023/05/28 12:24:14;;;;;;;4.03;3.63;;;31.20;81.00;;;;;;5034397;28;20310;-66
2023/05/28 12:26:41;;;;;;;4.88;4.35;;;31.10;77.40;;;;;;5034007;28;20187;-65
2023/05/28 12:29:07;;;;;;;5.20;4.28;;;30.90;74.00;;;;;;5032528;28;20183;-66
2023/05/28 12:31:33;;;;;;;5.80;4.35;;;30.80;80.90;;;;;;5033378;28;20195;-65
2023/05/28 12:33:59;;;;;;;5.50;3.63;;;30.90;75.10;;;;;;5032416;28;20206;-65
2023/05/28 12:36:25;;;;;;;4.45;3.80;;;31.20;75.00;;;;;;5033990;28;20187;-65
2023/05/28 12:38:51;;;;;;;4.13;3.83;;;31.30;73.00;;;;;;5033694;28;20183;-65
2023/05/28 12:41:17;;;;;;;4.93;4.43;;;31.30;77.70;;;;;;5033404;28;20226;-65